Terminal Aerodrome Forecast
Issued by NWS

Home | Current Version | Previous Version | Text Only | Print | Product List | Glossary On
Versions: 1 2 3 4 5 6 7 8 9 10 11 12 13 14 15 16
881
FTUS42 KGSP 301422 AAA
TAFAND
TAF AMD
KAND 301422Z 3014/3112 12007KT P6SM VCTS OVC012CB
     FM301600 14007KT P6SM VCTS OVC020CB
     FM310200 13007KT 6SM -SHRA BR VCTS OVC015CB
     FM310700 17008KT 3SM RA BR OVC007=

USA.gov is the U.S. government's official web portal to all federal, state and local government web resources and services.